Cincinnati, Ohio
Traffic Map
Current Weather Conditions
Cincinnati, Ohio
Clear
Clear
63°
Feels Like: 63°
Wind Chill: 63° Ceiling: Unl
Heat Index: 63° Visibility: 10mi
Dew Point: 61° Wind: 0mph
Humidity: 93% Direction: ° ()
Pressure: 30in Gusts: 0mph
Raw Report DataKLUK 020553Z AUTO 00000KT 10SM CLR 17/16 A3000 RMK AO2 SLP155 T01720161 10256 20172 53002
Traffic Incident Summary
Active as of:
Severity:
Category:
InformationThere was an issue retrieving the traffic information for this location. Please try a different location or try again shortly.
Advertisements
Track Severe Weather on mobile